Time;durP1;ratioP1;P1;durP2;ratioP2;P2;SDS_P1;SDS_P2;PMS_P1;PMS_P2;Temp;Humidity;BMP_temperature;BMP_pressure;BME280_temperature;BME280_humidity;BME280_pressure;Samples;Min_cycle;Max_cycle;Signal;HPM_P1;HPM_P2
2022/01/15 00:02:02;;;;;;;24.77;6.70;;;;;;;;;;4971814;28;20496;-73
2022/01/15 00:04:27;;;;;;;22.02;7.25;;;;;;;;;;4954921;28;20452;-72
2022/01/15 00:06:52;;;;;;;24.60;6.93;;;;;;;;;;4954520;28;20384;-72
2022/01/15 00:09:19;;;;;;;20.48;6.38;;;;;;;;;;4972057;28;20464;-71
2022/01/15 00:11:44;;;;;;;17.42;6.75;;;;;;;;;;4971600;28;20436;-73
2022/01/15 00:14:15;;;;;;;19.90;5.60;;;;;;;;;;4972493;28;20444;-73
2022/01/15 00:17:03;;;;;;;15.30;5.70;;;;;;;;;;4954993;28;20349;-72
2022/01/15 00:19:41;;;;;;;19.30;7.28;;;;;;;;;;4971959;28;20489;-72
2022/01/15 00:22:08;;;;;;;21.00;6.15;;;;;;;;;;4972435;28;20025;-72
2022/01/15 00:24:33;;;;;;;15.13;5.68;;;;;;;;;;4971744;28;20395;-73
2022/01/15 00:26:58;;;;;;;22.17;5.38;;;;;;;;;;4953761;28;20321;-72
2022/01/15 00:29:24;;;;;;;15.85;5.30;;;;;;;;;;4971964;28;20383;-72
2022/01/15 00:31:49;;;;;;;19.50;5.80;;;;;;;;;;4954260;28;20464;-72
2022/01/15 00:34:14;;;;;;;17.45;6.07;;;;;;;;;;4972791;28;20424;-72
2022/01/15 00:36:40;;;;;;;14.95;4.78;;;;;;;;;;4971739;28;20380;-72
2022/01/15 00:39:05;;;;;;;14.25;5.15;;;;;;;;;;4971889;28;20416;-71
2022/01/15 00:41:30;;;;;;;15.15;5.55;;;;;;;;;;4953880;28;20372;-72
2022/01/15 00:43:55;;;;;;;14.77;5.97;;;;;;;;;;4971733;28;20393;-72
2022/01/15 00:46:21;;;;;;;15.18;5.03;;;;;;;;;;4953339;28;20419;-72
2022/01/15 00:48:46;;;;;;;15.98;5.72;;;;;;;;;;4971450;28;20317;-72
2022/01/15 00:51:11;;;;;;;16.92;5.13;;;;;;;;;;4971413;28;20372;-72
2022/01/15 00:53:37;;;;;;;14.07;4.97;;;;;;;;;;4972183;28;20306;-71
2022/01/15 00:56:02;;;;;;;17.33;5.47;;;;;;;;;;4971273;28;20420;-72
2022/01/15 00:58:28;;;;;;;15.20;5.47;;;;;;;;;;4971827;28;20508;-72
2022/01/15 01:00:53;;;;;;;15.02;5.45;;;;;;;;;;4955456;28;20021;-72
2022/01/15 01:03:18;;;;;;;14.15;6.32;;;;;;;;;;4959911;28;20476;-72
2022/01/15 01:05:44;;;;;;;14.43;4.97;;;;;;;;;;4953379;28;20345;-72
2022/01/15 01:08:09;;;;;;;15.20;5.50;;;;;;;;;;4971042;28;20472;-72
2022/01/15 01:13:27;;;;;;;11.93;4.60;;;;;;;;;;4970826;28;20485;-72
2022/01/15 01:20:04;;;;;;;12.27;4.10;;;;;;;;;;4970864;28;20517;-72
2022/01/15 01:22:10;;;;;;;12.02;4.35;;;;;;;;;;4970735;28;20563;-72
2022/01/15 01:24:13;;;;;;;14.30;5.25;;;;;;;;;;4970734;28;20432;-72
2022/01/15 01:29:54;;;;;;;15.70;4.95;;;;;;;;;;4972125;28;20399;-72
2022/01/15 01:32:41;;;;;;;14.65;4.32;;;;;;;;;;4957422;28;20025;-72
2022/01/15 01:35:16;;;;;;;12.45;4.70;;;;;;;;;;4970939;28;20044;-72
2022/01/15 01:37:46;;;;;;;14.35;4.97;;;;;;;;;;4971944;28;20038;-74
2022/01/15 01:42:44;;;;;;;12.80;4.78;;;;;;;;;;4971108;28;20354;-72
2022/01/15 01:45:12;;;;;;;;;;;;;;;;;;4953791;28;20314;-73
2022/01/15 01:47:40;;;;;;;13.60;4.25;;;;;;;;;;4967153;28;19916;-74
2022/01/15 01:50:27;;;;;;;14.18;4.55;;;;;;;;;;4972393;28;20106;-71
2022/01/15 01:52:55;;;;;;;12.35;4.03;;;;;;;;;;4972026;28;20454;-72
2022/01/15 01:55:23;;;;;;;9.80;3.50;;;;;;;;;;4972019;28;20029;-72
2022/01/15 01:57:49;;;;;;;13.45;4.10;;;;;;;;;;4972024;28;20456;-72
2022/01/15 02:00:18;;;;;;;10.02;3.92;;;;;;;;;;4971819;28;20574;-73
2022/01/15 02:02:44;;;;;;;10.25;3.83;;;;;;;;;;4971238;28;20450;-72
2022/01/15 02:05:10;;;;;;;10.50;4.40;;;;;;;;;;4956094;28;20071;-72
2022/01/15 02:07:36;;;;;;;10.00;3.90;;;;;;;;;;4989766;28;20480;-72
2022/01/15 02:10:04;;;;;;;8.95;3.45;;;;;;;;;;4971531;28;20440;-71
2022/01/15 02:12:29;;;;;;;13.33;3.90;;;;;;;;;;4971358;28;20033;-72
2022/01/15 02:14:55;;;;;;;12.40;3.75;;;;;;;;;;4971522;28;20467;-72
2022/01/15 02:17:21;;;;;;;10.05;3.60;;;;;;;;;;4989312;28;20416;-72
2022/01/15 02:20:09;;;;;;;7.93;3.95;;;;;;;;;;4971819;28;20432;-72
2022/01/15 02:25:19;;;;;;;12.57;3.63;;;;;;;;;;4989450;28;20056;-72
2022/01/15 02:27:44;;;;;;;9.50;4.03;;;;;;;;;;4971596;28;20428;-72
2022/01/15 02:30:10;;;;;;;11.13;4.15;;;;;;;;;;4989017;28;20368;-72
2022/01/15 02:32:36;;;;;;;10.80;4.10;;;;;;;;;;4988655;28;20531;-72
2022/01/15 02:35:02;;;;;;;11.98;4.13;;;;;;;;;;4989343;28;20053;-73
2022/01/15 02:37:31;;;;;;;11.98;3.42;;;;;;;;;;4970983;28;20379;-72
2022/01/15 02:39:57;;;;;;;11.88;4.57;;;;;;;;;;4989098;28;20483;-72
2022/01/15 02:42:24;;;;;;;10.07;3.17;;;;;;;;;;4991003;28;20393;-72
2022/01/15 02:44:57;;;;;;;11.65;4.07;;;;;;;;;;4988966;28;20434;-72
2022/01/15 02:50:08;;;;;;;10.15;3.40;;;;;;;;;;4973475;28;20383;-72
2022/01/15 02:52:33;;;;;;;11.25;3.45;;;;;;;;;;4988874;28;20096;-72
2022/01/15 02:54:58;;;;;;;9.40;3.33;;;;;;;;;;4969610;28;20057;-72
2022/01/15 02:57:23;;;;;;;9.55;3.90;;;;;;;;;;4989066;28;20463;-71
2022/01/15 02:59:49;;;;;;;7.97;3.03;;;;;;;;;;4990288;28;20438;-72
2022/01/15 03:02:14;;;;;;;9.13;3.05;;;;;;;;;;4969953;28;20350;-72
2022/01/15 03:04:40;;;;;;;6.68;3.03;;;;;;;;;;4988894;28;20527;-71
2022/01/15 03:07:05;;;;;;;7.45;3.25;;;;;;;;;;4989131;28;20543;-72
2022/01/15 03:09:31;;;;;;;10.45;3.50;;;;;;;;;;4971049;28;20409;-72
2022/01/15 03:12:01;;;;;;;10.02;3.28;;;;;;;;;;4989518;28;20438;-72
2022/01/15 03:14:30;;;;;;;10.15;3.90;;;;;;;;;;4988885;28;20402;-72
2022/01/15 03:16:55;;;;;;;6.70;3.03;;;;;;;;;;4988680;28;20340;-72
2022/01/15 03:19:20;;;;;;;8.63;3.25;;;;;;;;;;4989093;28;20049;-72
2022/01/15 03:21:46;;;;;;;8.80;3.22;;;;;;;;;;4954535;28;20396;-72
2022/01/15 03:24:11;;;;;;;8.70;2.58;;;;;;;;;;4988488;28;20462;-72
2022/01/15 03:26:38;;;;;;;11.38;3.60;;;;;;;;;;4991364;28;20424;-72
2022/01/15 03:29:03;;;;;;;8.25;3.20;;;;;;;;;;4993705;28;20418;-73
2022/01/15 03:31:28;;;;;;;8.38;3.35;;;;;;;;;;4974055;28;20188;-72
2022/01/15 03:33:54;;;;;;;11.80;3.50;;;;;;;;;;4992169;28;20490;-71
2022/01/15 03:36:19;;;;;;;9.77;2.92;;;;;;;;;;4991836;28;20413;-72
2022/01/15 03:38:44;;;;;;;8.73;3.10;;;;;;;;;;4974545;28;20382;-72
2022/01/15 03:41:10;;;;;;;8.98;3.50;;;;;;;;;;4974064;28;20331;-72
2022/01/15 03:43:35;;;;;;;7.38;2.97;;;;;;;;;;4993050;28;20418;-72
2022/01/15 03:46:00;;;;;;;8.15;2.50;;;;;;;;;;4993272;28;20064;-72
2022/01/15 03:48:27;;;;;;;6.05;2.55;;;;;;;;;;4992230;28;20333;-72
2022/01/15 03:50:52;;;;;;;7.43;2.70;;;;;;;;;;4974741;28;20428;-72
2022/01/15 03:53:20;;;;;;;10.25;3.38;;;;;;;;;;4992482;28;20336;-73
2022/01/15 03:55:45;;;;;;;6.97;2.33;;;;;;;;;;4992100;28;20467;-72
2022/01/15 03:58:10;;;;;;;9.00;3.13;;;;;;;;;;4992135;28;20466;-75
2022/01/15 04:00:36;;;;;;;7.78;3.55;;;;;;;;;;4974626;28;20387;-72
2022/01/15 04:03:03;;;;;;;8.98;2.70;;;;;;;;;;4973528;28;20349;-72
2022/01/15 04:05:29;;;;;;;9.73;3.65;;;;;;;;;;4991458;28;20376;-73
2022/01/15 04:07:54;;;;;;;13.20;3.30;;;;;;;;;;4973579;28;20021;-71
2022/01/15 04:10:19;;;;;;;5.82;2.78;;;;;;;;;;4992354;28;20431;-72
2022/01/15 04:12:45;;;;;;;8.80;3.10;;;;;;;;;;4973929;28;20391;-72
2022/01/15 04:15:13;;;;;;;7.55;2.50;;;;;;;;;;4973825;28;20033;-72
2022/01/15 04:17:39;;;;;;;5.00;3.15;;;;;;;;;;4957564;28;20416;-72
2022/01/15 04:20:05;;;;;;;9.60;3.05;;;;;;;;;;4991526;28;20047;-72
2022/01/15 04:22:31;;;;;;;7.82;2.20;;;;;;;;;;4991427;28;20021;-72
2022/01/15 04:24:56;;;;;;;10.02;3.17;;;;;;;;;;4991740;28;20092;-73
2022/01/15 04:27:23;;;;;;;7.80;2.70;;;;;;;;;;4991280;28;20032;-72
2022/01/15 04:29:49;;;;;;;7.75;2.63;;;;;;;;;;4991242;28;20493;-72
2022/01/15 04:32:15;;;;;;;10.25;3.13;;;;;;;;;;4974693;28;20025;-72
2022/01/15 04:34:40;;;;;;;7.38;2.63;;;;;;;;;;4991089;28;20051;-73
2022/01/15 04:37:13;;;;;;;7.00;2.50;;;;;;;;;;4990947;28;20514;-71
2022/01/15 04:39:39;;;;;;;6.65;2.63;;;;;;;;;;4991258;28;20423;-72
2022/01/15 04:42:05;;;;;;;6.45;2.67;;;;;;;;;;4991239;28;20528;-73
2022/01/15 04:44:30;;;;;;;4.75;2.35;;;;;;;;;;4992517;28;20442;-72
2022/01/15 04:46:55;;;;;;;10.63;2.72;;;;;;;;;;4991581;28;20052;-71
2022/01/15 04:49:21;;;;;;;8.55;3.15;;;;;;;;;;4972739;28;20375;-72
2022/01/15 04:51:46;;;;;;;6.28;2.33;;;;;;;;;;4991056;28;20317;-72
2022/01/15 04:54:11;;;;;;;5.88;2.50;;;;;;;;;;4972861;28;20132;-72
2022/01/15 04:56:37;;;;;;;5.50;2.72;;;;;;;;;;4991076;28;20344;-72
2022/01/15 04:59:02;;;;;;;5.03;2.58;;;;;;;;;;4973161;28;20099;-73
2022/01/15 05:01:28;;;;;;;7.30;2.05;;;;;;;;;;4972939;28;20325;-73
2022/01/15 05:03:53;;;;;;;7.93;2.97;;;;;;;;;;4972369;28;20584;-72
2022/01/15 05:06:19;;;;;;;7.18;2.40;;;;;;;;;;4990838;28;20029;-73
2022/01/15 05:08:45;;;;;;;10.40;3.10;;;;;;;;;;4990799;28;20021;-71
2022/01/15 05:11:15;;;;;;;5.05;2.72;;;;;;;;;;4992707;28;20032;-72
2022/01/15 05:13:40;;;;;;;8.38;2.10;;;;;;;;;;4991014;28;20385;-72
2022/01/15 05:16:06;;;;;;;7.70;2.20;;;;;;;;;;4990355;28;20394;-72
2022/01/15 05:18:31;;;;;;;4.38;2.13;;;;;;;;;;4990274;28;20432;-72
2022/01/15 05:20:57;;;;;;;6.90;2.22;;;;;;;;;;4990472;28;20489;-72
2022/01/15 05:23:22;;;;;;;5.97;2.58;;;;;;;;;;4990847;28;20416;-72
2022/01/15 05:25:48;;;;;;;7.05;2.45;;;;;;;;;;4972157;28;20091;-73
2022/01/15 05:28:13;;;;;;;7.00;2.90;;;;;;;;;;4972629;28;20336;-72
2022/01/15 05:30:39;;;;;;;8.77;2.72;;;;;;;;;;4990866;28;20523;-72
2022/01/15 05:33:04;;;;;;;6.70;2.13;;;;;;;;;;4973027;28;20511;-72
2022/01/15 05:35:29;;;;;;;6.40;2.75;;;;;;;;;;4972101;28;20099;-72
2022/01/15 05:37:56;;;;;;;3.88;2.33;;;;;;;;;;4990833;28;20345;-72
2022/01/15 05:40:22;;;;;;;5.20;2.45;;;;;;;;;;4972046;28;20347;-72
2022/01/15 05:42:47;;;;;;;9.70;2.80;;;;;;;;;;4972251;28;20024;-73
2022/01/15 05:45:13;;;;;;;5.97;2.00;;;;;;;;;;4956566;28;20357;-71
2022/01/15 05:47:39;;;;;;;5.57;2.17;;;;;;;;;;4989644;28;20340;-72
2022/01/15 05:50:05;;;;;;;7.35;2.90;;;;;;;;;;4971427;28;20507;-72
2022/01/15 05:52:30;;;;;;;8.88;2.60;;;;;;;;;;4971522;28;20032;-72
2022/01/15 05:54:55;;;;;;;6.93;2.97;;;;;;;;;;4989549;28;20064;-73
2022/01/15 05:57:21;;;;;;;9.88;3.40;;;;;;;;;;4989789;28;20459;-72
2022/01/15 05:59:46;;;;;;;5.20;2.28;;;;;;;;;;4989794;28;20383;-72
2022/01/15 06:02:11;;;;;;;7.88;2.72;;;;;;;;;;4989216;28;20047;-72
2022/01/15 06:04:37;;;;;;;6.72;2.63;;;;;;;;;;4990428;28;20472;-72
2022/01/15 06:07:02;;;;;;;7.40;2.70;;;;;;;;;;4971451;28;20459;-72
2022/01/15 06:09:28;;;;;;;11.75;2.92;;;;;;;;;;4989430;28;20365;-72
2022/01/15 06:11:55;;;;;;;7.82;2.85;;;;;;;;;;4989229;28;20459;-72
2022/01/15 06:14:21;;;;;;;5.80;2.67;;;;;;;;;;4989663;28;20033;-72
2022/01/15 06:16:47;;;;;;;6.07;2.47;;;;;;;;;;4971608;28;20024;-72
2022/01/15 06:19:12;;;;;;;6.97;2.60;;;;;;;;;;4971223;28;20317;-72
2022/01/15 06:21:37;;;;;;;5.93;2.67;;;;;;;;;;4989799;28;20344;-72
2022/01/15 06:24:03;;;;;;;6.18;3.03;;;;;;;;;;4989117;28;20056;-73
2022/01/15 06:26:28;;;;;;;10.63;3.38;;;;;;;;;;4971547;28;20459;-71
2022/01/15 06:28:53;;;;;;;5.10;2.72;;;;;;;;;;4971751;28;20411;-72
2022/01/15 06:31:19;;;;;;;8.48;2.20;;;;;;;;;;4989307;28;20429;-72
2022/01/15 06:33:44;;;;;;;5.78;2.55;;;;;;;;;;4989589;28;20311;-72
2022/01/15 06:36:10;;;;;;;7.53;2.90;;;;;;;;;;4971597;28;20123;-72
2022/01/15 06:38:35;;;;;;;5.82;2.60;;;;;;;;;;4989798;28;20037;-72
2022/01/15 06:41:00;;;;;;;5.97;2.53;;;;;;;;;;4990088;28;20508;-72
2022/01/15 06:43:26;;;;;;;7.28;2.47;;;;;;;;;;4989019;28;20344;-72
2022/01/15 06:45:51;;;;;;;8.65;3.35;;;;;;;;;;4971412;28;20458;-72
2022/01/15 06:48:16;;;;;;;9.63;2.90;;;;;;;;;;4990002;28;20503;-72
2022/01/15 06:50:43;;;;;;;3.70;2.00;;;;;;;;;;4971077;28;20068;-73
2022/01/15 06:53:08;;;;;;;4.70;2.22;;;;;;;;;;4988885;28;20416;-72
2022/01/15 06:55:33;;;;;;;5.72;2.67;;;;;;;;;;4971406;28;20423;-73
2022/01/15 06:57:59;;;;;;;9.23;2.30;;;;;;;;;;4988791;28;20541;-72
2022/01/15 07:00:25;;;;;;;6.15;2.45;;;;;;;;;;4990863;28;20336;-72
2022/01/15 07:02:50;;;;;;;7.65;2.47;;;;;;;;;;4992972;28;20510;-72
2022/01/15 07:05:16;;;;;;;9.32;2.97;;;;;;;;;;4993482;28;20424;-72
2022/01/15 07:07:45;;;;;;;6.18;2.80;;;;;;;;;;4993737;28;20394;-72
2022/01/15 07:10:10;;;;;;;4.50;2.38;;;;;;;;;;4992252;28;20344;-72
2022/01/15 07:12:35;;;;;;;9.75;2.72;;;;;;;;;;4992941;28;20076;-72
2022/01/15 07:15:01;;;;;;;7.07;2.85;;;;;;;;;;4992812;28;20429;-73
2022/01/15 07:17:26;;;;;;;7.35;2.38;;;;;;;;;;4974406;28;20106;-72
2022/01/15 07:19:51;;;;;;;6.43;2.05;;;;;;;;;;4992826;28;20374;-72
2022/01/15 07:22:17;;;;;;;5.63;2.60;;;;;;;;;;4992320;28;20317;-71
2022/01/15 07:24:42;;;;;;;5.05;2.10;;;;;;;;;;4974908;28;20317;-72
2022/01/15 07:27:08;;;;;;;6.82;2.33;;;;;;;;;;4974528;28;20431;-72
2022/01/15 07:29:36;;;;;;;8.10;3.00;;;;;;;;;;4992489;28;20398;-72
2022/01/15 07:32:02;;;;;;;6.97;2.35;;;;;;;;;;4975213;28;20024;-72
2022/01/15 07:34:28;;;;;;;5.82;2.75;;;;;;;;;;4974303;28;20371;-72
2022/01/15 07:36:57;;;;;;;4.28;2.33;;;;;;;;;;4992419;28;20024;-72
2022/01/15 07:39:22;;;;;;;5.15;2.70;;;;;;;;;;4992444;28;20056;-72
2022/01/15 07:41:48;;;;;;;10.05;2.60;;;;;;;;;;4974889;28;20456;-72
2022/01/15 07:44:13;;;;;;;8.60;2.60;;;;;;;;;;4974550;28;20440;-72
2022/01/15 07:46:38;;;;;;;5.43;2.45;;;;;;;;;;4974553;28;20308;-72
2022/01/15 07:49:04;;;;;;;7.63;2.47;;;;;;;;;;4992034;28;20028;-72
2022/01/15 07:51:29;;;;;;;4.63;2.20;;;;;;;;;;4992191;28;20327;-73
2022/01/15 07:53:56;;;;;;;7.22;2.30;;;;;;;;;;4974273;28;20454;-72
2022/01/15 07:56:21;;;;;;;7.75;2.55;;;;;;;;;;4991863;28;20466;-72
2022/01/15 07:58:47;;;;;;;3.55;1.80;;;;;;;;;;4973739;28;20418;-72
2022/01/15 08:01:13;;;;;;;9.35;2.42;;;;;;;;;;4974152;28;20388;-72
2022/01/15 08:03:38;;;;;;;5.20;2.42;;;;;;;;;;4973489;28;20523;-72
2022/01/15 08:06:04;;;;;;;5.10;1.80;;;;;;;;;;4974261;28;20028;-72
2022/01/15 08:08:30;;;;;;;9.73;3.00;;;;;;;;;;4991566;28;20033;-72
2022/01/15 08:10:55;;;;;;;7.25;2.03;;;;;;;;;;4991878;28;20505;-73
2022/01/15 08:13:20;;;;;;;7.68;2.83;;;;;;;;;;4990870;28;20432;-72
2022/01/15 08:15:46;;;;;;;4.75;1.85;;;;;;;;;;4991167;28;20479;-72
2022/01/15 08:18:11;;;;;;;8.07;2.17;;;;;;;;;;4991786;28;20446;-72
2022/01/15 08:20:36;;;;;;;5.18;2.13;;;;;;;;;;4992371;28;20037;-72
2022/01/15 08:23:02;;;;;;;7.03;2.80;;;;;;;;;;4974403;28;20499;-72
2022/01/15 08:25:27;;;;;;;10.30;2.92;;;;;;;;;;4991775;28;20348;-72
2022/01/15 08:27:53;;;;;;;13.02;4.18;;;;;;;;;;4991353;28;20028;-72
2022/01/15 08:30:19;;;;;;;10.43;2.97;;;;;;;;;;4973271;28;20421;-72
2022/01/15 08:32:45;;;;;;;6.80;2.65;;;;;;;;;;4973460;28;20363;-72
2022/01/15 08:35:10;;;;;;;5.78;2.67;;;;;;;;;;4957373;28;20325;-72
2022/01/15 08:37:37;;;;;;;6.70;2.65;;;;;;;;;;4973561;28;20423;-72
2022/01/15 08:40:04;;;;;;;6.35;2.30;;;;;;;;;;4973282;28;20417;-73
2022/01/15 08:42:29;;;;;;;7.28;2.50;;;;;;;;;;4973074;28;20116;-73
2022/01/15 08:44:55;;;;;;;6.03;2.05;;;;;;;;;;4990966;28;20177;-74
2022/01/15 08:47:20;;;;;;;6.72;2.45;;;;;;;;;;4973063;28;20514;-72
2022/01/15 08:49:45;;;;;;;6.53;2.83;;;;;;;;;;4991295;28;20387;-72
2022/01/15 08:52:11;;;;;;;5.38;2.20;;;;;;;;;;4992069;28;20386;-72
2022/01/15 08:54:36;;;;;;;6.13;2.40;;;;;;;;;;4990590;28;20384;-72
2022/01/15 08:57:02;;;;;;;13.02;3.55;;;;;;;;;;4990994;28;20083;-72
2022/01/15 08:59:27;;;;;;;8.70;2.83;;;;;;;;;;4991247;28;20535;-73
2022/01/15 09:01:55;;;;;;;4.80;2.60;;;;;;;;;;4972790;28;20374;-73
2022/01/15 09:04:21;;;;;;;9.68;2.42;;;;;;;;;;4990371;28;20534;-73
2022/01/15 09:06:46;;;;;;;9.27;3.22;;;;;;;;;;4989617;28;20360;-73
2022/01/15 09:09:14;;;;;;;5.60;2.20;;;;;;;;;;4991296;28;20448;-72
2022/01/15 09:11:39;;;;;;;6.65;2.50;;;;;;;;;;4990189;28;20317;-73
2022/01/15 09:14:05;;;;;;;4.65;2.50;;;;;;;;;;4972688;28;20459;-73
2022/01/15 09:16:30;;;;;;;5.75;2.50;;;;;;;;;;4972668;28;20493;-72
2022/01/15 09:18:56;;;;;;;7.75;2.60;;;;;;;;;;4990866;28;20496;-72
2022/01/15 09:21:22;;;;;;;8.13;2.85;;;;;;;;;;4972223;28;20107;-73
2022/01/15 09:23:48;;;;;;;9.30;2.75;;;;;;;;;;4988959;28;20352;-72
2022/01/15 09:26:21;;;;;;;7.10;2.70;;;;;;;;;;4990000;28;20044;-73
2022/01/15 09:31:31;;;;;;;7.55;2.92;;;;;;;;;;4975867;28;20107;-73
2022/01/15 09:33:56;;;;;;;6.68;2.50;;;;;;;;;;4989879;28;20036;-73
2022/01/15 09:36:21;;;;;;;7.60;2.28;;;;;;;;;;4972574;28;20416;-72
2022/01/15 09:38:47;;;;;;;10.90;3.58;;;;;;;;;;4989947;28;20368;-72
2022/01/15 09:41:14;;;;;;;6.78;2.60;;;;;;;;;;4972293;28;20392;-72
2022/01/15 09:43:40;;;;;;;6.80;2.42;;;;;;;;;;4972002;28;20171;-72
2022/01/15 09:46:11;;;;;;;5.88;2.38;;;;;;;;;;5008349;27;1213242;-74
2022/01/15 09:48:38;;;;;;;5.40;2.33;;;;;;;;;;5026158;28;20359;-73
2022/01/15 09:51:05;;;;;;;8.15;2.13;;;;;;;;;;5025947;28;20324;-75
2022/01/15 09:53:34;;;;;;;5.25;2.67;;;;;;;;;;5026896;28;20394;-73
2022/01/15 09:56:00;;;;;;;10.38;3.78;;;;;;;;;;5026152;28;20513;-74
2022/01/15 09:58:25;;;;;;;6.80;1.90;;;;;;;;;;5025771;28;20407;-73
2022/01/15 10:00:51;;;;;;;7.20;2.83;;;;;;;;;;5024281;28;20439;-73
2022/01/15 10:03:16;;;;;;;8.05;2.40;;;;;;;;;;5025311;28;20423;-73
2022/01/15 10:05:42;;;;;;;5.38;2.35;;;;;;;;;;5023578;28;20493;-73
2022/01/15 10:08:10;;;;;;;6.22;2.47;;;;;;;;;;5024280;28;20366;-73
2022/01/15 10:10:37;;;;;;;11.35;3.05;;;;;;;;;;5024002;28;20447;-72
2022/01/15 10:13:17;;;;;;;9.05;2.97;;;;;;;;;;5025666;28;20380;-73
2022/01/15 10:15:48;;;;;;;5.97;2.67;;;;;;;;;;5025474;28;20021;-74
2022/01/15 10:18:22;;;;;;;6.53;2.33;;;;;;;;;;5025266;28;20017;-73
2022/01/15 10:20:48;;;;;;;4.65;2.00;;;;;;;;;;5024279;28;20331;-73
2022/01/15 10:23:15;;;;;;;8.88;2.97;;;;;;;;;;5025055;28;20324;-74
2022/01/15 10:25:41;;;;;;;4.30;2.03;;;;;;;;;;5023919;28;20439;-74
2022/01/15 10:28:06;;;;;;;9.68;2.58;;;;;;;;;;5023607;28;20460;-73
2022/01/15 10:30:31;;;;;;;6.07;2.15;;;;;;;;;;5024276;28;20337;-74
2022/01/15 10:32:58;;;;;;;6.22;2.13;;;;;;;;;;5023635;28;20051;-73
2022/01/15 10:35:38;;;;;;;6.53;2.20;;;;;;;;;;5024434;28;20427;-73
2022/01/15 10:38:14;;;;;;;8.18;2.67;;;;;;;;;;5024304;28;20096;-72
2022/01/15 10:40:40;;;;;;;9.65;2.75;;;;;;;;;;5023389;28;20402;-73
2022/01/15 10:43:06;;;;;;;6.22;2.58;;;;;;;;;;5023961;28;20419;-73
2022/01/15 10:45:34;;;;;;;6.32;2.15;;;;;;;;;;5022761;28;20451;-73
2022/01/15 10:48:02;;;;;;;4.82;1.85;;;;;;;;;;5008331;28;20319;-73
2022/01/15 10:50:33;;;;;;;5.03;2.25;;;;;;;;;;5024341;28;20510;-73
2022/01/15 10:53:05;;;;;;;5.07;1.55;;;;;;;;;;5024781;28;20475;-73
2022/01/15 10:55:31;;;;;;;12.02;2.95;;;;;;;;;;5023169;28;20315;-73
2022/01/15 10:57:59;;;;;;;6.65;2.35;;;;;;;;;;4993194;28;20363;-73
2022/01/15 11:00:46;;;;;;;9.85;2.67;;;;;;;;;;5009600;28;20127;-73
2022/01/15 11:03:16;;;;;;;5.88;1.70;;;;;;;;;;5010531;28;20309;-73
2022/01/15 11:05:43;;;;;;;6.47;2.33;;;;;;;;;;5011117;28;20055;-73
2022/01/15 11:08:11;;;;;;;7.20;2.22;;;;;;;;;;5009672;28;20431;-73
2022/01/15 11:10:43;;;;;;;8.48;2.67;;;;;;;;;;5011444;28;20020;-73
2022/01/15 11:13:11;;;;;;;7.40;2.80;;;;;;;;;;5010983;28;20346;-74
2022/01/15 11:15:38;;;;;;;6.32;2.20;;;;;;;;;;5010204;28;20520;-74
2022/01/15 11:18:04;;;;;;;9.20;3.33;;;;;;;;;;5011877;28;20432;-73
2022/01/15 11:20:34;;;;;;;14.10;3.92;;;;;;;;;;4993921;28;20355;-73
2022/01/15 11:23:00;;;;;;;11.65;4.00;;;;;;;;;;5010636;28;20032;-73
2022/01/15 11:25:27;;;;;;;15.90;3.80;;;;;;;;;;5011466;28;20494;-73
2022/01/15 11:27:53;;;;;;;17.52;3.83;;;;;;;;;;5009334;28;20055;-73
2022/01/15 11:30:20;;;;;;;6.35;2.78;;;;;;;;;;5010690;28;20428;-73
2022/01/15 11:32:45;;;;;;;10.13;3.05;;;;;;;;;;4992936;28;20435;-73
2022/01/15 11:35:10;;;;;;;8.95;2.72;;;;;;;;;;5008989;28;20475;-74
2022/01/15 11:37:49;;;;;;;6.88;3.28;;;;;;;;;;5009463;28;20522;-73
2022/01/15 11:40:36;;;;;;;7.97;2.60;;;;;;;;;;5009252;28;20505;-73
2022/01/15 11:43:33;;;;;;;6.95;2.35;;;;;;;;;;5011311;28;20470;-73
2022/01/15 11:46:04;;;;;;;6.78;2.67;;;;;;;;;;5025542;28;20044;-73
2022/01/15 11:48:33;;;;;;;6.57;3.03;;;;;;;;;;4996070;28;20292;-73
2022/01/15 11:51:14;;;;;;;;;;;;;;;;;;5013349;28;20411;-73
2022/01/15 11:53:49;;;;;;;6.47;2.17;;;;;;;;;;5030610;28;20251;-74
2022/01/15 11:56:26;;;;;;;5.95;2.25;;;;;;;;;;5029974;28;20035;-73
2022/01/15 11:58:54;;;;;;;8.65;2.38;;;;;;;;;;5012157;28;20305;-73
2022/01/15 12:01:36;;;;;;;7.07;2.97;;;;;;;;;;5011916;28;20385;-74
2022/01/15 12:04:29;;;;;;;6.15;2.22;;;;;;;;;;5029831;28;20451;-74
2022/01/15 12:07:01;;;;;;;6.47;2.33;;;;;;;;;;5031076;28;20449;-73
2022/01/15 12:09:38;;;;;;;6.50;2.50;;;;;;;;;;5028941;28;20342;-74
2022/01/15 12:14:54;;;;;;;10.57;2.83;;;;;;;;;;5030158;28;20177;-74
2022/01/15 12:17:36;;;;;;;8.57;2.58;;;;;;;;;;5011945;28;20419;-73
2022/01/15 12:20:05;;;;;;;8.02;2.55;;;;;;;;;;5029330;28;20403;-73
2022/01/15 12:22:39;;;;;;;5.18;2.00;;;;;;;;;;5011615;28;20323;-73
2022/01/15 12:25:08;;;;;;;6.22;2.20;;;;;;;;;;5029517;28;20424;-73
2022/01/15 12:27:34;;;;;;;7.57;3.05;;;;;;;;;;4995136;28;20344;-73
2022/01/15 12:30:02;;;;;;;4.90;1.92;;;;;;;;;;5012182;28;20444;-74
2022/01/15 12:32:32;;;;;;;8.18;2.33;;;;;;;;;;5011360;28;20450;-73
2022/01/15 12:34:58;;;;;;;6.93;2.58;;;;;;;;;;5011456;28;20297;-73
2022/01/15 12:37:25;;;;;;;6.30;2.90;;;;;;;;;;5011046;28;20292;-75
2022/01/15 12:39:50;;;;;;;8.02;2.63;;;;;;;;;;5029488;28;20357;-74
2022/01/15 12:42:17;;;;;;;6.18;2.55;;;;;;;;;;5011166;28;20342;-74
2022/01/15 12:44:51;;;;;;;6.15;2.08;;;;;;;;;;5028717;28;20110;-73
2022/01/15 12:47:17;;;;;;;9.85;3.30;;;;;;;;;;5029239;28;20460;-74
2022/01/15 12:49:47;;;;;;;8.45;2.63;;;;;;;;;;5011447;28;20533;-73
2022/01/15 12:52:31;;;;;;;6.03;2.10;;;;;;;;;;5010946;28;20474;-74
2022/01/15 12:55:00;;;;;;;7.45;2.80;;;;;;;;;;5029359;28;20467;-73
2022/01/15 12:57:43;;;;;;;11.77;3.20;;;;;;;;;;5029270;28;20062;-73
2022/01/15 13:00:19;;;;;;;11.77;3.20;;;;;;;;;;5011398;28;20047;-74
2022/01/15 13:02:46;;;;;;;7.43;2.83;;;;;;;;;;5029596;28;20354;-73
2022/01/15 13:05:12;;;;;;;8.25;3.45;;;;;;;;;;5028837;28;20323;-73
2022/01/15 13:07:52;;;;;;;15.85;3.85;;;;;;;;;;5010212;28;20024;-73
2022/01/15 13:10:33;;;;;;;10.13;2.83;;;;;;;;;;5028887;28;20374;-74
2022/01/15 13:12:59;;;;;;;8.95;2.92;;;;;;;;;;5005160;28;20056;-73
2022/01/15 13:15:27;;;;;;;7.82;2.90;;;;;;;;;;4990702;28;20416;-73
2022/01/15 13:17:52;;;;;;;7.13;2.30;;;;;;;;;;4990768;28;20032;-73
2022/01/15 13:20:28;;;;;;;11.60;3.40;;;;;;;;;;4973998;28;20050;-73
2022/01/15 13:22:54;;;;;;;12.95;3.92;;;;;;;;;;5009308;28;20055;-74
2022/01/15 13:25:21;;;;;;;10.73;3.63;;;;;;;;;;4990588;28;20343;-73
2022/01/15 13:27:46;;;;;;;11.75;3.45;;;;;;;;;;4991166;28;20573;-73
2022/01/15 13:30:12;;;;;;;11.60;3.40;;;;;;;;;;5009670;28;20443;-73
2022/01/15 13:32:37;;;;;;;10.43;2.90;;;;;;;;;;4990774;28;20529;-73
2022/01/15 13:35:12;;;;;;;10.38;3.80;;;;;;;;;;4990448;28;20336;-73
2022/01/15 13:37:49;;;;;;;11.00;3.45;;;;;;;;;;4990292;28;20366;-73
2022/01/15 13:40:35;;;;;;;10.75;3.67;;;;;;;;;;4990397;28;20332;-73
2022/01/15 13:43:02;;;;;;;15.10;4.10;;;;;;;;;;5008884;28;20557;-73
2022/01/15 13:45:32;;;;;;;11.30;4.07;;;;;;;;;;4970251;28;20336;-73
2022/01/15 13:48:22;;;;;;;11.25;4.40;;;;;;;;;;4970561;28;20352;-73
2022/01/15 13:53:46;;;;;;;14.75;4.22;;;;;;;;;;4988020;28;20487;-73
2022/01/15 13:56:18;;;;;;;11.25;3.90;;;;;;;;;;4987254;28;20336;-74
2022/01/15 13:58:43;;;;;;;14.30;4.93;;;;;;;;;;4988969;28;20025;-73
2022/01/15 14:01:20;;;;;;;12.60;3.78;;;;;;;;;;4988811;28;20055;-73
2022/01/15 14:03:45;;;;;;;10.48;3.70;;;;;;;;;;4989189;28;20470;-73
2022/01/15 14:06:12;;;;;;;11.70;3.30;;;;;;;;;;4989184;28;20037;-73
2022/01/15 14:08:37;;;;;;;13.02;3.63;;;;;;;;;;4988097;28;20419;-73
2022/01/15 14:11:11;;;;;;;8.85;3.47;;;;;;;;;;4986943;28;20043;-73
2022/01/15 14:13:37;;;;;;;12.38;4.35;;;;;;;;;;4987058;28;20414;-73
2022/01/15 14:16:18;;;;;;;8.82;3.88;;;;;;;;;;4987020;28;20092;-73
2022/01/15 14:18:46;;;;;;;11.68;3.58;;;;;;;;;;4986830;28;20348;-73
2022/01/15 14:21:28;;;;;;;11.70;3.97;;;;;;;;;;4987906;28;20452;-73
2022/01/15 14:23:55;;;;;;;7.75;3.58;;;;;;;;;;4988393;28;20776;-73
2022/01/15 14:26:23;;;;;;;12.95;3.72;;;;;;;;;;4988544;28;20037;-73
2022/01/15 14:28:48;;;;;;;8.63;2.85;;;;;;;;;;4988528;28;20347;-73
2022/01/15 14:31:14;;;;;;;12.25;3.85;;;;;;;;;;4971205;28;20335;-73
2022/01/15 14:33:46;;;;;;;9.68;3.58;;;;;;;;;;4990376;28;20408;-73
2022/01/15 14:36:11;;;;;;;11.35;3.50;;;;;;;;;;4991863;28;20336;-74
2022/01/15 14:38:37;;;;;;;11.88;3.75;;;;;;;;;;4990686;28;20317;-73
2022/01/15 14:41:03;;;;;;;11.40;4.35;;;;;;;;;;4990369;28;20506;-74
2022/01/15 14:43:29;;;;;;;11.77;4.60;;;;;;;;;;4990407;28;20301;-74
2022/01/15 14:45:55;;;;;;;9.30;3.38;;;;;;;;;;5005779;28;20459;-73
2022/01/15 14:48:22;;;;;;;8.80;3.53;;;;;;;;;;4993519;28;20451;-74
2022/01/15 14:50:47;;;;;;;13.05;4.03;;;;;;;;;;5012452;28;20385;-73
2022/01/15 14:53:12;;;;;;;12.18;5.00;;;;;;;;;;5011627;28;20462;-74
2022/01/15 14:55:38;;;;;;;12.85;4.35;;;;;;;;;;5011031;28;20033;-73
2022/01/15 14:58:03;;;;;;;7.57;3.65;;;;;;;;;;4993351;28;20434;-74
2022/01/15 15:00:29;;;;;;;11.00;3.47;;;;;;;;;;5011153;28;20443;-73
2022/01/15 15:02:54;;;;;;;11.05;4.00;;;;;;;;;;5011530;28;20408;-73
2022/01/15 15:05:20;;;;;;;10.95;4.55;;;;;;;;;;5011373;28;20055;-73
2022/01/15 15:07:45;;;;;;;9.77;3.53;;;;;;;;;;5011064;28;20036;-73